PABT/BTT METAR and TAF weather

Enter ICAO airport designator
Station Type Date Time Source
PABT METAR 2018/12/15 01:53 UTC NOAA

PABT 150153Z 34005KT 10SM OVC031 M24/M27 A2947 RMK AO2 SLP008 T12391267 PNO $


Station Type Date Time Source
PABT Decoded METAR 2018/12/15 01:53 UTC NOAA

BETTLES AIRPORT, AK, United States (PABT) 66-54N 151-31W 196M
Dec 14, 2018 - 08:53 PM EST / 2018.12.15 0153 UTC
Wind: from the NNW (340 degrees) at 6 MPH (5 KT):0
Visibility: 10 mile(s):0
Sky conditions: overcast
Temperature: -11.0 F (-23.9 C)
Windchill: -25 F (-32 C):2
Dew Point: -16.1 F (-26.7 C)
Relative Humidity: 77%
Pressure (altimeter): 29.47 in. Hg (997 hPa)
ob: PABT 150153Z 34005KT 10SM OVC031 M24/M27 A2947 RMK AO2 SLP008 T12391267 PNO
cycle: 2

Station Type Date Time Source
PABT TAF 2018/12/14 18:42 UTC NOAA

TAF PABT 141739Z 1418/1518 00000KT P6SM SCT020
FM142100 35004KT P6SM BKN020


Example: see airport list